Flugplatz Betzdorf-Kirchen

Für EDKI sind keine METAR/TAF Berichte vorhanden.
Es werden die Flugwettermeldungen vom Flugplatz Siegerland in 21 km Entfernung angezeigt.

Prognose für EDGS

vom 06.03. um 17:00 UTC

Am 06.03. zwischen 18:00 UTC und 03:00 UTC

Wind 4 kt aus 100°

Sichtweite 10 km oder mehr

keine signifikanten Wettererscheinungen

keine Wolken

TAF EDGS 061700Z 0618/0703 10004KT CAVOK
Impressum